createdAt,value
2022-11-03T00:00:36.671Z,3.77
2022-11-03T00:03:03.440Z,2.70
2022-11-03T00:05:48.767Z,2.93
2022-11-03T00:08:15.161Z,2.60
2022-11-03T00:10:41.601Z,3.10
2022-11-03T02:19:39.161Z,1.93
2022-11-03T02:22:14.469Z,2.10
2022-11-03T02:24:56.846Z,2.47
2022-11-03T02:27:23.391Z,2.17
2022-11-03T02:29:50.029Z,2.30
2022-11-03T02:32:19.455Z,2.37
2022-11-03T02:34:51.219Z,2.90
2022-11-03T02:37:25.713Z,2.27
2022-11-03T02:39:57.633Z,2.40
2022-11-03T06:58:38.417Z,4.50
2022-11-03T07:01:16.099Z,3.60
2022-11-03T07:03:42.650Z,4.07
2022-11-03T07:06:15.204Z,4.00
2022-11-03T07:08:51.091Z,3.97
2022-11-03T07:11:19.040Z,4.70
2022-11-03T07:13:47.832Z,4.40
2022-11-03T07:16:35.455Z,4.27
2022-11-03T07:19:10.603Z,5.30
2022-11-03T07:22:06.283Z,4.67
2022-11-03T07:24:54.226Z,4.30
2022-11-03T07:27:24.355Z,4.27
2022-11-03T07:29:52.697Z,4.87
2022-11-03T07:32:21.465Z,4.30
2022-11-03T07:34:49.178Z,5.10
2022-11-03T07:37:20.278Z,4.50
2022-11-03T07:39:46.939Z,4.77
2022-11-03T07:42:24.436Z,4.87
2022-11-03T07:44:52.936Z,4.67
2022-11-03T07:47:25.624Z,4.20
2022-11-03T07:49:52.186Z,5.30
2022-11-03T07:52:24.275Z,4.73
2022-11-03T07:54:54.860Z,5.20
2022-11-03T07:57:27.002Z,5.47
2022-11-03T08:00:03.886Z,5.40
2022-11-03T08:02:43.336Z,4.63
2022-11-03T08:05:09.769Z,5.23
2022-11-03T08:07:36.358Z,5.97
2022-11-03T08:10:02.989Z,6.23
2022-11-03T08:12:29.383Z,5.63
2022-11-03T08:14:55.820Z,5.17
2022-11-03T08:17:22.179Z,4.53
2022-11-03T08:19:48.577Z,6.30
2022-11-03T08:22:14.991Z,4.80
2022-11-03T08:24:41.392Z,5.80
2022-11-03T08:27:07.850Z,5.40
2022-11-03T08:29:34.252Z,6.67
2022-11-03T08:32:00.627Z,5.30
2022-11-03T08:34:27.023Z,5.90
2022-11-03T08:36:53.452Z,5.90
2022-11-03T08:39:19.849Z,5.77
2022-11-03T08:41:46.249Z,5.80
2022-11-03T08:44:12.669Z,6.50
2022-11-03T08:46:39.086Z,5.47
2022-11-03T08:49:05.513Z,5.43
2022-11-03T08:51:31.884Z,5.20
2022-11-03T08:53:58.240Z,5.80
2022-11-03T08:56:24.744Z,4.87
2022-11-03T08:58:51.362Z,5.00
2022-11-03T09:01:17.954Z,4.57
2022-11-03T09:03:44.629Z,5.00
2022-11-03T09:06:11.230Z,4.40
2022-11-03T09:11:24.069Z,5.40
2022-11-03T09:13:50.446Z,5.50
2022-11-03T09:16:17.256Z,5.23
2022-11-03T09:18:43.847Z,5.63
2022-11-03T09:21:10.240Z,5.60
2022-11-03T09:23:36.674Z,5.03
2022-11-03T09:26:03.161Z,5.07
2022-11-03T09:28:29.567Z,5.10
2022-11-03T09:30:55.932Z,4.93
2022-11-03T09:33:22.290Z,6.93
2022-11-03T09:35:48.774Z,6.23
2022-11-03T09:38:15.237Z,5.77
2022-11-03T09:40:41.694Z,5.97
2022-11-03T09:43:09.302Z,5.27
2022-11-03T09:45:36.048Z,5.10
2022-11-03T09:48:02.540Z,4.13
2022-11-03T09:50:28.968Z,5.23
2022-11-03T09:52:57.393Z,5.43
2022-11-03T09:55:26.142Z,4.40
2022-11-03T09:58:00.660Z,5.00
2022-11-03T10:00:27.432Z,5.70
2022-11-03T10:03:24.834Z,5.00
2022-11-03T10:05:51.682Z,4.13
2022-11-03T10:08:30.626Z,4.07
2022-11-03T10:10:58.345Z,3.37
2022-11-03T10:13:34.567Z,3.87
2022-11-03T10:16:03.277Z,3.00
2022-11-03T10:18:29.722Z,3.50
2022-11-03T10:21:06.949Z,3.33
2022-11-03T10:23:33.661Z,3.07
2022-11-03T10:26:09.913Z,3.13
2022-11-03T10:28:37.005Z,3.10
2022-11-03T10:31:11.769Z,3.37
2022-11-03T10:33:41.887Z,3.03
2022-11-03T10:36:17.093Z,3.87
2022-11-03T10:38:44.334Z,3.10
2022-11-03T10:41:28.472Z,3.13
2022-11-03T10:44:17.683Z,3.03
2022-11-03T10:46:56.274Z,2.97
2022-11-03T10:49:23.453Z,3.30
2022-11-03T10:51:52.816Z,4.27
2022-11-03T10:54:22.819Z,3.13
2022-11-03T10:56:50.973Z,3.60
2022-11-03T10:59:18.977Z,3.40
2022-11-03T11:01:46.119Z,3.70
2022-11-03T11:04:18.076Z,2.80
2022-11-03T11:06:44.888Z,3.77
2022-11-03T11:09:15.855Z,2.90
2022-11-03T11:12:04.279Z,3.20
2022-11-03T11:14:30.640Z,3.53
2022-11-03T11:16:59.073Z,3.67
2022-11-03T11:19:27.143Z,3.70
2022-11-03T11:21:53.689Z,3.13
2022-11-03T11:24:44.747Z,3.53
2022-11-03T11:27:31.793Z,3.30
2022-11-03T11:30:04.970Z,3.60
2022-11-03T11:33:12.407Z,3.70
2022-11-03T11:35:38.863Z,3.20
2022-11-03T11:38:55.299Z,3.73
2022-11-03T11:41:42.208Z,3.33
2022-11-03T11:44:40.333Z,3.57
2022-11-03T11:47:31.766Z,3.77
2022-11-03T11:50:07.383Z,3.77
2022-11-03T11:52:50.324Z,3.37
2022-11-03T11:55:38.136Z,4.37
2022-11-03T11:58:13.351Z,3.77
2022-11-03T12:00:50.969Z,3.37
2022-11-03T12:03:20.557Z,3.60
2022-11-03T12:05:50.245Z,4.37
2022-11-03T12:08:18.612Z,3.57
2022-11-03T12:11:05.393Z,4.20
2022-11-03T12:13:47.215Z,4.70
2022-11-03T12:16:30.405Z,4.50
2022-11-03T12:18:59.926Z,4.30
2022-11-03T12:21:47.341Z,4.20
2022-11-03T12:24:36.266Z,3.50
2022-11-03T12:27:16.088Z,4.33
2022-11-03T12:29:42.499Z,3.93
2022-11-03T12:32:25.579Z,4.80
2022-11-03T12:34:56.391Z,5.03
2022-11-03T12:37:23.426Z,4.03
2022-11-03T12:39:49.969Z,3.83
2022-11-03T12:42:16.444Z,4.03
2022-11-03T12:44:44.007Z,4.97
2022-11-03T12:47:10.909Z,5.63
2022-11-03T12:49:37.381Z,4.80
2022-11-03T12:52:08.326Z,4.70
2022-11-03T12:54:35.340Z,3.80
2022-11-03T12:57:01.861Z,4.80
2022-11-03T12:59:28.496Z,4.07
2022-11-03T13:01:55.143Z,4.07
2022-11-03T13:04:21.670Z,3.97
2022-11-03T13:06:48.177Z,3.83
2022-11-03T13:09:14.677Z,4.57
2022-11-03T13:12:00.120Z,4.13
2022-11-03T13:14:26.720Z,4.00
2022-11-03T13:16:53.265Z,3.30
2022-11-03T13:19:19.658Z,3.30
2022-11-03T13:21:46.159Z,2.90
2022-11-03T13:24:12.601Z,4.00
2022-11-03T13:26:39.044Z,3.97
2022-11-03T13:29:05.476Z,2.97
2022-11-03T13:31:31.906Z,3.40
2022-11-03T13:33:58.335Z,3.47
2022-11-03T13:36:24.852Z,3.30
2022-11-03T13:38:51.300Z,3.57
2022-11-03T13:41:17.749Z,3.27
2022-11-03T13:43:44.284Z,3.50
2022-11-03T13:46:12.837Z,4.20
2022-11-03T13:51:26.275Z,3.40
2022-11-03T13:59:26.513Z,3.90
2022-11-03T14:07:11.585Z,4.70
2022-11-03T14:09:38.167Z,4.97
2022-11-03T14:12:23.502Z,4.70
2022-11-03T14:14:49.893Z,4.47
2022-11-03T14:17:16.359Z,3.70
2022-11-03T14:19:47.300Z,4.30
2022-11-03T14:22:17.454Z,4.20
2022-11-03T14:24:44.414Z,4.30
2022-11-03T14:27:10.902Z,4.77
2022-11-03T14:29:37.339Z,3.70
2022-11-03T14:32:04.094Z,4.33
2022-11-03T14:34:30.782Z,4.90
2022-11-03T14:36:57.324Z,4.50
2022-11-03T14:39:23.891Z,4.60
2022-11-03T14:42:05.539Z,6.03
2022-11-03T14:44:37.155Z,5.60
2022-11-03T14:47:06.369Z,5.50
2022-11-03T14:49:34.255Z,5.40
2022-11-03T14:52:02.084Z,5.57
2022-11-03T14:54:29.874Z,5.87
2022-11-03T14:56:56.388Z,5.27
2022-11-03T14:59:23.465Z,4.90
2022-11-03T15:01:53.956Z,5.50
2022-11-03T15:04:21.630Z,4.40
2022-11-03T15:06:48.171Z,4.20
2022-11-03T15:09:15.550Z,4.70
2022-11-03T15:11:45.480Z,3.83
2022-11-03T15:14:13.093Z,3.50
2022-11-03T15:16:40.276Z,3.90
2022-11-03T15:19:07.765Z,3.43
2022-11-03T15:21:34.771Z,3.20
2022-11-03T15:26:47.995Z,3.40
2022-11-03T15:29:14.532Z,3.50
2022-11-03T15:31:46.159Z,3.13
2022-11-03T15:34:14.170Z,3.60
2022-11-03T15:36:40.626Z,2.90
2022-11-03T15:39:07.075Z,3.80
2022-11-03T15:41:33.493Z,3.00
2022-11-03T15:43:59.899Z,3.90
2022-11-03T15:46:26.675Z,6.10
2022-11-03T15:48:54.531Z,17.50
2022-11-03T15:51:21.169Z,7.60
2022-11-03T15:53:47.617Z,5.37
2022-11-03T15:56:14.017Z,5.03
2022-11-03T15:58:40.942Z,4.37
2022-11-03T16:01:07.544Z,3.97
2022-11-03T16:03:34.141Z,3.43
2022-11-03T16:06:00.591Z,4.03
2022-11-03T16:08:27.069Z,4.23
2022-11-03T16:10:57.878Z,4.13
2022-11-03T16:13:25.206Z,3.50
2022-11-03T16:15:53.087Z,3.93
2022-11-03T16:18:19.512Z,3.90
2022-11-03T16:20:45.961Z,4.60
2022-11-03T16:23:12.388Z,4.97
2022-11-03T16:25:39.537Z,5.57
2022-11-03T16:28:06.535Z,5.67
2022-11-03T16:30:35.173Z,5.77
2022-11-03T16:33:01.574Z,4.80
2022-11-03T16:35:29.328Z,4.90
2022-11-03T16:37:55.913Z,5.30
2022-11-03T16:40:22.397Z,4.40
2022-11-03T16:42:48.847Z,4.63
2022-11-03T16:45:19.131Z,4.87
2022-11-03T16:47:49.867Z,4.60
2022-11-03T16:50:17.600Z,4.40
2022-11-03T16:52:45.579Z,5.00
2022-11-03T16:55:12.728Z,4.30
2022-11-03T16:57:39.749Z,4.60
2022-11-03T17:00:08.973Z,4.60
2022-11-03T17:02:35.611Z,4.50
2022-11-03T17:05:02.147Z,4.90
2022-11-03T17:07:28.585Z,4.57
2022-11-03T17:09:55.006Z,4.03
2022-11-03T17:12:21.545Z,4.93
2022-11-03T17:14:51.217Z,4.80
2022-11-03T17:17:20.495Z,4.63
2022-11-03T17:19:46.931Z,6.00
2022-11-03T17:22:14.369Z,5.17
2022-11-03T17:24:41.000Z,5.20
2022-11-03T17:27:19.199Z,5.50
2022-11-03T17:29:52.549Z,8.20
2022-11-03T17:32:25.743Z,6.73
2022-11-03T17:34:53.242Z,5.60
2022-11-03T17:37:20.396Z,5.93
2022-11-03T17:39:46.903Z,6.37
2022-11-03T17:42:17.666Z,6.40
2022-11-03T17:44:45.643Z,6.50
2022-11-03T17:47:12.098Z,4.77
2022-11-03T17:49:38.712Z,4.70
2022-11-03T17:52:06.654Z,4.60
2022-11-03T17:54:33.121Z,4.60
2022-11-03T17:57:01.484Z,4.70
2022-11-03T17:59:28.602Z,6.10
2022-11-03T18:01:55.717Z,5.30
2022-11-03T18:04:22.907Z,3.80
2022-11-03T18:06:49.458Z,3.83
2022-11-03T18:09:16.226Z,6.97
2022-11-03T18:12:01.678Z,7.47
2022-11-03T18:14:29.466Z,5.13
2022-11-03T18:16:56.859Z,5.57
2022-11-03T18:19:23.491Z,6.00
2022-11-03T18:21:49.955Z,5.17
2022-11-03T18:24:18.907Z,4.70
2022-11-03T18:26:45.520Z,5.27
2022-11-03T18:29:12.019Z,5.03
2022-11-03T18:31:47.178Z,4.80
2022-11-03T18:34:17.964Z,5.03
2022-11-03T18:36:44.498Z,5.07
2022-11-03T18:39:18.425Z,6.50
2022-11-03T18:41:45.880Z,5.77
2022-11-03T18:44:24.125Z,5.30
2022-11-03T18:46:51.900Z,5.60
2022-11-03T18:49:19.505Z,5.30
2022-11-03T18:52:00.889Z,5.17
2022-11-03T18:54:30.221Z,4.80
2022-11-03T18:56:56.946Z,5.10
2022-11-03T18:59:27.210Z,5.53
2022-11-03T19:01:54.105Z,5.00
2022-11-03T19:04:21.092Z,6.07
2022-11-03T19:06:50.161Z,5.73
2022-11-03T19:09:21.118Z,5.53
2022-11-03T19:11:49.511Z,5.07
2022-11-03T19:14:23.242Z,5.97
2022-11-03T19:17:21.340Z,6.00
2022-11-03T19:19:39.251Z,5.63
2022-11-03T19:22:11.900Z,6.50
2022-11-03T19:24:38.326Z,6.27
2022-11-03T19:27:06.579Z,5.43
2022-11-03T19:29:38.198Z,6.43
2022-11-03T19:32:05.001Z,5.30
2022-11-03T19:34:35.267Z,6.33
2022-11-03T19:37:01.775Z,6.67
2022-11-03T19:39:34.731Z,5.37
2022-11-03T19:42:28.819Z,6.17
2022-11-03T19:45:00.300Z,5.23
2022-11-03T19:47:32.529Z,5.47
2022-11-03T19:50:01.359Z,6.07
2022-11-03T19:52:29.757Z,5.73
2022-11-03T19:54:57.977Z,6.00
2022-11-03T19:57:24.352Z,5.50
2022-11-03T19:59:50.850Z,5.83
2022-11-03T20:02:17.387Z,6.43
2022-11-03T20:04:46.828Z,7.60
2022-11-03T20:07:15.501Z,6.77
2022-11-03T20:09:42.340Z,6.70
2022-11-03T20:12:13.561Z,7.47
2022-11-03T20:14:40.028Z,6.90
2022-11-03T20:17:13.983Z,6.87
2022-11-03T20:19:40.958Z,6.17
2022-11-03T20:22:13.455Z,6.60
2022-11-03T20:24:40.118Z,5.93
2022-11-03T20:27:10.216Z,6.30
2022-11-03T20:29:36.911Z,6.23
2022-11-03T20:32:03.469Z,7.10
2022-11-03T20:34:29.964Z,6.43
2022-11-03T20:36:59.007Z,7.20
2022-11-03T20:39:27.805Z,6.23
2022-11-03T20:41:56.613Z,6.43
2022-11-03T20:44:23.944Z,6.67
2022-11-03T20:46:50.425Z,6.27
2022-11-03T20:49:16.946Z,6.80
2022-11-03T20:51:45.933Z,6.67
2022-11-03T20:54:20.870Z,6.77
2022-11-03T20:56:48.087Z,6.40
2022-11-03T20:59:23.130Z,8.47
2022-11-03T21:01:50.225Z,8.03
2022-11-03T21:04:18.390Z,7.80
2022-11-03T21:06:45.831Z,7.27
2022-11-03T21:09:13.899Z,6.60
2022-11-03T21:11:40.532Z,7.10
2022-11-03T21:14:18.771Z,7.03
2022-11-03T21:17:03.718Z,7.90
2022-11-03T21:20:01.516Z,9.10
2022-11-03T21:22:53.723Z,9.83
2022-11-03T21:25:22.273Z,6.80
2022-11-03T21:27:49.619Z,8.97
2022-11-03T21:30:17.365Z,8.70
2022-11-03T21:32:44.106Z,6.20
2022-11-03T21:35:20.359Z,6.17
2022-11-03T21:37:47.277Z,5.77
2022-11-03T21:40:14.024Z,5.30
2022-11-03T21:42:59.123Z,4.20
2022-11-03T21:45:25.965Z,4.73
2022-11-03T21:48:13.919Z,3.50
2022-11-03T21:50:41.251Z,3.67
2022-11-03T21:53:08.067Z,3.13
2022-11-03T21:55:35.230Z,3.00
2022-11-03T21:58:02.787Z,3.00
2022-11-03T22:00:29.450Z,2.53
2022-11-03T22:02:56.070Z,3.10
2022-11-03T22:05:22.729Z,2.77
2022-11-03T22:07:49.445Z,2.67
2022-11-03T22:10:15.959Z,2.70
2022-11-03T22:12:42.478Z,3.27
2022-11-03T22:15:27.997Z,3.30
2022-11-03T22:18:00.755Z,4.87
2022-11-03T22:20:45.776Z,6.23
2022-11-03T22:23:33.990Z,6.60
2022-11-03T22:26:19.414Z,5.70
2022-11-03T22:28:45.852Z,4.00
2022-11-03T22:31:31.203Z,4.00
2022-11-03T22:34:17.904Z,2.83
2022-11-03T22:36:44.268Z,2.93
2022-11-03T22:39:29.218Z,2.40
2022-11-03T22:42:13.989Z,2.30
2022-11-03T22:44:59.346Z,2.50
2022-11-03T22:47:26.734Z,2.17
2022-11-03T22:49:53.136Z,2.33
2022-11-03T22:52:19.568Z,2.63
2022-11-03T22:54:46.028Z,1.93
2022-11-03T22:57:13.242Z,1.90
2022-11-03T22:59:39.907Z,1.83
2022-11-03T23:02:06.683Z,1.70
2022-11-03T23:04:33.170Z,2.20
2022-11-03T23:06:59.658Z,2.00
2022-11-03T23:09:26.047Z,2.30
2022-11-03T23:11:53.227Z,1.77
2022-11-03T23:14:20.989Z,1.87
2022-11-03T23:16:47.553Z,2.20
2022-11-03T23:19:34.285Z,1.87
2022-11-03T23:22:00.946Z,2.83
2022-11-03T23:24:46.161Z,2.40
2022-11-03T23:27:13.486Z,3.00
2022-11-03T23:29:40.254Z,3.70
2022-11-03T23:32:07.094Z,4.00
2022-11-03T23:34:35.052Z,3.27
2022-11-03T23:37:02.054Z,2.70
2022-11-03T23:39:28.460Z,2.03
2022-11-03T23:41:55.080Z,1.53
2022-11-03T23:44:21.831Z,1.40
2022-11-03T23:47:06.878Z,1.00
2022-11-03T23:49:36.353Z,0.80
2022-11-03T23:52:05.481Z,0.90
2022-11-03T23:54:31.985Z,0.70
2022-11-03T23:57:16.716Z,0.70
